Time;durP1;ratioP1;P1;durP2;ratioP2;P2;SDS_P1;SDS_P2;PMS_P1;PMS_P2;Temp;Humidity;BMP_temperature;BMP_pressure;BME280_temperature;BME280_humidity;BME280_pressure;Samples;Min_cycle;Max_cycle;Signal;HPM_P1;HPM_P2
2022/09/15 00:01:12;;;;;;;4.95;1.42;;;;;;;;;;10280079;28;20422;-67
2022/09/15 00:06:13;;;;;;;3.97;1.65;;;;;;;;;;10280005;28;20080;-67
2022/09/15 00:11:16;;;;;;;4.05;1.88;;;;;;;;;;10279909;28;20120;-66
2022/09/15 00:16:15;;;;;;;2.42;2.17;;;;;;;;;;10279907;28;20044;-67
2022/09/15 00:21:14;;;;;;;1.70;1.55;;;;;;;;;;10279599;28;20060;-67
2022/09/15 00:26:15;;;;;;;5.05;1.73;;;;;;;;;;10279654;28;20080;-67
2022/09/15 00:31:15;;;;;;;6.03;1.40;;;;;;;;;;10279791;28;20045;-68
2022/09/15 00:36:14;;;;;;;2.20;1.58;;;;;;;;;;10279230;28;20045;-68
2022/09/15 00:41:15;;;;;;;2.17;1.60;;;;;;;;;;10278848;28;20067;-68
2022/09/15 00:46:14;;;;;;;3.33;1.88;;;;;;;;;;10277760;28;20079;-68
2022/09/15 00:51:15;;;;;;;3.67;1.83;;;;;;;;;;10278449;28;20079;-67
2022/09/15 00:56:15;;;;;;;2.33;1.40;;;;;;;;;;10278780;28;20053;-68
2022/09/15 01:01:14;;;;;;;4.25;2.10;;;;;;;;;;10277980;28;20084;-68
2022/09/15 01:06:15;;;;;;;2.60;1.40;;;;;;;;;;10277515;28;20463;-68
2022/09/15 01:11:15;;;;;;;1.95;1.33;;;;;;;;;;10278168;28;20214;-68
2022/09/15 01:16:18;;;;;;;2.35;1.60;;;;;;;;;;10276778;28;20041;-67
2022/09/15 01:21:21;;;;;;;2.00;1.42;;;;;;;;;;10277113;28;20052;-67
2022/09/15 01:26:41;;;;;;;1.60;1.43;;;;;;;;;;10277313;28;20091;-67
2022/09/15 01:33:02;;;;;;;2.47;1.73;;;;;;;;;;10276530;28;20311;-67
2022/09/15 01:37:03;;;;;;;4.13;1.80;;;;;;;;;;10277193;28;20140;-67
2022/09/15 01:42:03;;;;;;;4.05;1.67;;;;;;;;;;10276955;28;20446;-66
2022/09/15 01:47:05;;;;;;;3.35;1.48;;;;;;;;;;10276334;28;20072;-66
2022/09/15 01:52:03;;;;;;;5.82;1.67;;;;;;;;;;10275589;28;20041;-66
2022/09/15 01:57:02;;;;;;;4.93;1.52;;;;;;;;;;10276571;28;20088;-66
2022/09/15 02:02:04;;;;;;;1.65;1.40;;;;;;;;;;10274528;28;20434;-66
2022/09/15 02:07:06;;;;;;;2.63;1.48;;;;;;;;;;10274958;28;20041;-66
2022/09/15 02:12:07;;;;;;;3.75;2.00;;;;;;;;;;10275903;28;20116;-66
2022/09/15 02:17:10;;;;;;;3.63;1.92;;;;;;;;;;10275282;28;20056;-66
2022/09/15 02:22:11;;;;;;;3.92;1.58;;;;;;;;;;10274997;28;20061;-66
2022/09/15 02:27:11;;;;;;;4.70;1.70;;;;;;;;;;10275461;28;20088;-66
2022/09/15 02:32:12;;;;;;;3.53;1.85;;;;;;;;;;10275307;28;20131;-66
2022/09/15 02:37:11;;;;;;;1.63;1.52;;;;;;;;;;10275629;28;20084;-66
2022/09/15 02:42:10;;;;;;;1.60;1.50;;;;;;;;;;10275169;28;20044;-66
2022/09/15 02:47:08;;;;;;;2.50;1.42;;;;;;;;;;10281694;28;20095;-66
2022/09/15 02:52:08;;;;;;;2.83;1.52;;;;;;;;;;10282713;28;20048;-66
2022/09/15 02:57:06;;;;;;;1.98;1.38;;;;;;;;;;10283616;28;20052;-66
2022/09/15 03:02:04;;;;;;;4.93;2.38;;;;;;;;;;10282438;28;20045;-66
2022/09/15 03:07:03;;;;;;;3.65;1.60;;;;;;;;;;10282406;28;20072;-66
2022/09/15 03:12:02;;;;;;;2.70;1.88;;;;;;;;;;10281603;28;20049;-66
2022/09/15 03:17:01;;;;;;;3.35;1.52;;;;;;;;;;10286595;28;20041;-66
2022/09/15 03:21:59;;;;;;;1.45;1.35;;;;;;;;;;10288936;28;20068;-66
2022/09/15 03:26:57;;;;;;;3.58;1.70;;;;;;;;;;10313234;28;20064;-66
2022/09/15 03:31:57;;;;;;;3.38;1.48;;;;;;;;;;10293175;28;20078;-66
2022/09/15 03:36:55;;;;;;;4.25;1.58;;;;;;;;;;10281670;28;20041;-66
2022/09/15 03:41:53;;;;;;;4.03;1.33;;;;;;;;;;10281466;28;20095;-66
2022/09/15 03:46:52;;;;;;;3.47;1.88;;;;;;;;;;10280181;28;20082;-66
2022/09/15 03:51:51;;;;;;;1.40;1.30;;;;;;;;;;10280197;28;20041;-67
2022/09/15 03:56:50;;;;;;;1.75;1.65;;;;;;;;;;10280509;28;20087;-67
2022/09/15 04:01:49;;;;;;;2.20;1.40;;;;;;;;;;10280728;28;20045;-67
2022/09/15 04:06:47;;;;;;;3.47;1.92;;;;;;;;;;10308058;28;20449;-64
2022/09/15 04:11:47;;;;;;;1.75;1.65;;;;;;;;;;10313524;28;20057;-66
2022/09/15 04:16:45;;;;;;;5.10;1.95;;;;;;;;;;10282606;28;20064;-66
2022/09/15 04:21:44;;;;;;;10.70;6.80;;;;;;;;;;10287716;28;20052;-66
2022/09/15 04:26:43;;;;;;;4.70;2.70;;;;;;;;;;10279293;28;20076;-66
2022/09/15 04:31:43;;;;;;;7.57;4.30;;;;;;;;;;10287685;28;20456;-66
2022/09/15 04:36:41;;;;;;;4.07;2.92;;;;;;;;;;10287181;28;20072;-67
2022/09/15 04:41:40;;;;;;;2.08;1.88;;;;;;;;;;10299881;28;20044;-65
2022/09/15 04:46:38;;;;;;;6.60;2.65;;;;;;;;;;10317760;28;20079;-66
2022/09/15 04:51:37;;;;;;;2.33;1.98;;;;;;;;;;10290333;28;20033;-66
2022/09/15 04:56:36;;;;;;;4.82;2.15;;;;;;;;;;10280363;28;20340;-66
2022/09/15 05:01:34;;;;;;;12.88;2.50;;;;;;;;;;10269085;28;20072;-66
2022/09/15 05:06:33;;;;;;;5.15;1.70;;;;;;;;;;10270494;28;20076;-66
2022/09/15 05:11:33;;;;;;;5.00;2.85;;;;;;;;;;10273335;28;20073;-66
2022/09/15 05:16:31;;;;;;;4.20;2.58;;;;;;;;;;10274593;28;20068;-67
2022/09/15 05:21:30;;;;;;;3.92;1.75;;;;;;;;;;10271935;28;20076;-66
2022/09/15 05:26:29;;;;;;;4.25;2.40;;;;;;;;;;10271985;28;20088;-67
2022/09/15 05:31:30;;;;;;;4.03;2.30;;;;;;;;;;10273660;28;20075;-67
2022/09/15 05:36:28;;;;;;;2.90;1.80;;;;;;;;;;10276378;28;20520;-66
2022/09/15 05:41:27;;;;;;;2.60;2.00;;;;;;;;;;10276025;28;20045;-67
2022/09/15 05:46:26;;;;;;;8.43;2.20;;;;;;;;;;10275188;28;20510;-67
2022/09/15 05:51:26;;;;;;;4.88;1.77;;;;;;;;;;10276919;28;20052;-66
2022/09/15 05:56:24;;;;;;;2.53;1.90;;;;;;;;;;10276384;28;20041;-67
2022/09/15 06:01:23;;;;;;;6.03;2.42;;;;;;;;;;10275425;28;20045;-67
2022/09/15 06:06:22;;;;;;;5.88;2.33;;;;;;;;;;10275288;28;20076;-67
2022/09/15 06:11:22;;;;;;;9.85;2.80;;;;;;;;;;10275738;28;20069;-67
2022/09/15 06:16:21;;;;;;;6.45;2.30;;;;;;;;;;10275587;28;20048;-67
2022/09/15 06:21:21;;;;;;;3.90;2.10;;;;;;;;;;10273953;28;20400;-67
2022/09/15 06:26:19;;;;;;;4.38;1.95;;;;;;;;;;10275645;28;20084;-67
2022/09/15 06:31:19;;;;;;;15.63;3.50;;;;;;;;;;10275220;28;20047;-66
2022/09/15 06:36:18;;;;;;;6.75;2.17;;;;;;;;;;10275473;28;20045;-67
2022/09/15 06:41:16;;;;;;;5.30;2.40;;;;;;;;;;10275148;28;20037;-66
2022/09/15 06:46:15;;;;;;;3.35;2.05;;;;;;;;;;10275170;28;20048;-68
2022/09/15 06:51:16;;;;;;;2.97;2.35;;;;;;;;;;10274823;28;20048;-68
2022/09/15 06:56:15;;;;;;;8.02;2.17;;;;;;;;;;10274699;28;20422;-68
2022/09/15 07:01:13;;;;;;;4.38;2.22;;;;;;;;;;10274722;28;20045;-66
2022/09/15 07:06:12;;;;;;;6.28;2.10;;;;;;;;;;10274248;28;20041;-67
2022/09/15 07:11:11;;;;;;;2.40;2.20;;;;;;;;;;10273421;28;20049;-67
2022/09/15 07:16:10;;;;;;;4.53;2.30;;;;;;;;;;10274424;28;20054;-67
2022/09/15 07:21:10;;;;;;;9.20;3.17;;;;;;;;;;10274492;28;20049;-67
2022/09/15 07:26:10;;;;;;;5.32;2.10;;;;;;;;;;10273605;28;20084;-67
2022/09/15 07:31:10;;;;;;;2.83;1.83;;;;;;;;;;10277133;28;20080;-67
2022/09/15 07:36:09;;;;;;;5.43;2.05;;;;;;;;;;10281015;28;20052;-67
2022/09/15 07:41:09;;;;;;;6.95;2.20;;;;;;;;;;10280126;28;20079;-67
2022/09/15 07:46:09;;;;;;;6.00;2.78;;;;;;;;;;10280919;28;20487;-67
2022/09/15 07:51:07;;;;;;;6.90;2.47;;;;;;;;;;10281050;28;20091;-67
2022/09/15 07:56:06;;;;;;;4.70;2.10;;;;;;;;;;10280511;28;20059;-67
2022/09/15 08:01:05;;;;;;;6.90;2.35;;;;;;;;;;10278939;28;20430;-69
2022/09/15 08:06:04;;;;;;;6.75;2.60;;;;;;;;;;10279738;28;20056;-67
2022/09/15 08:11:05;;;;;;;6.90;1.77;;;;;;;;;;10279129;28;20084;-66
2022/09/15 08:16:07;;;;;;;5.55;2.05;;;;;;;;;;10278679;28;20175;-68
2022/09/15 08:21:08;;;;;;;6.28;2.45;;;;;;;;;;10278842;28;20077;-68
2022/09/15 08:26:06;;;;;;;5.88;2.10;;;;;;;;;;10279769;28;20095;-67
2022/09/15 08:31:12;;;;;;;5.65;2.30;;;;;;;;;;10278864;28;20072;-67
2022/09/15 08:36:12;;;;;;;4.40;1.90;;;;;;;;;;10278724;28;20044;-67
2022/09/15 08:41:13;;;;;;;9.00;1.88;;;;;;;;;;10278764;28;20049;-68
2022/09/15 08:46:15;;;;;;;6.30;1.75;;;;;;;;;;10278970;28;20033;-67
2022/09/15 08:51:19;;;;;;;3.63;2.60;;;;;;;;;;10277502;28;20073;-68
2022/09/15 08:56:19;;;;;;;5.18;1.83;;;;;;;;;;10278589;28;20049;-66
2022/09/15 09:01:24;;;;;;;5.95;1.88;;;;;;;;;;10278437;28;20049;-67
2022/09/15 09:06:27;;;;;;;4.85;1.85;;;;;;;;;;10291727;28;20083;-67
2022/09/15 09:11:31;;;;;;;10.27;2.00;;;;;;;;;;10278237;28;20509;-67
2022/09/15 09:16:29;;;;;;;;;;;;;;;;;;10278633;28;20056;-67
2022/09/15 09:21:30;;;;;;;5.85;2.08;;;;;;;;;;10278012;28;20365;-67
2022/09/15 09:26:29;;;;;;;5.43;2.50;;;;;;;;;;10277283;28;20064;-66
2022/09/15 09:31:28;;;;;;;6.22;2.90;;;;;;;;;;10277309;28;20085;-67
2022/09/15 09:36:26;;;;;;;8.93;2.17;;;;;;;;;;10276958;28;20045;-67
2022/09/15 09:41:34;;;;;;;6.45;1.60;;;;;;;;;;10276399;28;20104;-67
2022/09/15 09:46:33;;;;;;;10.98;3.33;;;;;;;;;;10276345;28;20051;-66
2022/09/15 09:51:36;;;;;;;4.95;1.63;;;;;;;;;;10276632;28;20482;-66
2022/09/15 09:56:35;;;;;;;7.23;2.03;;;;;;;;;;10275043;28;20099;-67
2022/09/15 10:01:34;;;;;;;4.65;2.00;;;;;;;;;;10276217;28;20045;-66
2022/09/15 10:06:34;;;;;;;8.88;3.03;;;;;;;;;;10275773;28;20049;-66
2022/09/15 10:11:40;;;;;;;7.70;2.15;;;;;;;;;;10274650;28;20076;-67
2022/09/15 10:16:38;;;;;;;6.38;1.90;;;;;;;;;;10275580;28;20045;-67
2022/09/15 10:21:38;;;;;;;6.90;2.70;;;;;;;;;;10275845;28;20080;-67
2022/09/15 10:26:37;;;;;;;11.05;2.45;;;;;;;;;;10275958;28;20045;-66
2022/09/15 10:31:37;;;;;;;7.40;2.25;;;;;;;;;;10275247;28;20088;-67
2022/09/15 10:36:35;;;;;;;10.00;2.00;;;;;;;;;;10275530;28;20495;-67
2022/09/15 10:41:35;;;;;;;7.10;3.08;;;;;;;;;;10275194;28;20391;-68
2022/09/15 10:46:40;;;;;;;9.55;2.60;;;;;;;;;;10275145;28;20265;-67
2022/09/15 10:51:50;;;;;;;11.15;2.92;;;;;;;;;;10273348;28;20579;-67
2022/09/15 10:56:49;;;;;;;13.18;3.05;;;;;;;;;;10274849;28;20045;-67
2022/09/15 11:02:00;;;;;;;11.00;3.13;;;;;;;;;;10274526;28;20037;-67
2022/09/15 11:07:04;;;;;;;11.02;2.80;;;;;;;;;;10277795;28;20079;-67
2022/09/15 11:12:08;;;;;;;4.50;2.22;;;;;;;;;;10282099;28;20072;-67
2022/09/15 11:17:16;;;;;;;12.40;2.85;;;;;;;;;;10282773;28;20048;-67
2022/09/15 11:22:17;;;;;;;7.53;2.20;;;;;;;;;;10281790;28;20491;-67
2022/09/15 11:27:18;;;;;;;10.38;2.30;;;;;;;;;;10281840;28;20037;-67
2022/09/15 11:32:20;;;;;;;8.82;2.95;;;;;;;;;;10281146;28;20072;-67
2022/09/15 11:37:22;;;;;;;20.23;2.80;;;;;;;;;;10280839;28;20080;-66
2022/09/15 11:42:25;;;;;;;11.63;3.03;;;;;;;;;;10281223;28;20041;-66
2022/09/15 11:47:26;;;;;;;15.90;3.75;;;;;;;;;;10280688;28;20061;-68
2022/09/15 11:52:34;;;;;;;10.27;2.70;;;;;;;;;;10280900;28;20076;-67
2022/09/15 11:57:34;;;;;;;9.50;2.50;;;;;;;;;;10279245;28;20049;-67
2022/09/15 12:02:34;;;;;;;6.45;2.70;;;;;;;;;;10280347;28;20049;-67
2022/09/15 12:07:37;;;;;;;11.50;3.47;;;;;;;;;;10280301;28;20118;-67
2022/09/15 12:12:36;;;;;;;18.03;4.53;;;;;;;;;;10278963;28;20329;-67
2022/09/15 12:17:37;;;;;;;11.77;3.53;;;;;;;;;;10279623;28;20049;-67
2022/09/15 12:22:40;;;;;;;18.70;6.30;;;;;;;;;;10279287;28;20434;-67
2022/09/15 12:27:38;;;;;;;;;;;;;;;;;;10280308;28;20467;-68
2022/09/15 12:32:39;;;;;;;15.27;3.95;;;;;;;;;;10277997;28;20298;-67
2022/09/15 12:37:40;;;;;;;9.63;2.78;;;;;;;;;;10278503;28;20411;-68
2022/09/15 12:42:45;;;;;;;10.57;2.50;;;;;;;;;;10279434;28;20502;-67
2022/09/15 12:47:49;;;;;;;17.20;3.97;;;;;;;;;;10278242;28;20045;-67
2022/09/15 12:52:50;;;;;;;13.32;2.78;;;;;;;;;;10278877;28;20076;-67
2022/09/15 12:57:53;;;;;;;14.05;2.72;;;;;;;;;;10278545;28;20045;-66
2022/09/15 13:02:51;;;;;;;13.03;2.90;;;;;;;;;;10278144;28;20498;-66
2022/09/15 13:07:55;;;;;;;8.32;2.10;;;;;;;;;;10277968;28;20079;-65
2022/09/15 13:12:56;;;;;;;9.98;2.78;;;;;;;;;;10277046;28;20072;-65
2022/09/15 13:17:56;;;;;;;13.55;2.50;;;;;;;;;;10277538;28;20041;-66
2022/09/15 13:22:55;;;;;;;7.65;2.03;;;;;;;;;;10275754;28;20080;-65
2022/09/15 13:27:55;;;;;;;9.48;2.22;;;;;;;;;;10276663;28;20406;-65
2022/09/15 13:32:55;;;;;;;13.25;3.40;;;;;;;;;;10276489;28;20083;-65
2022/09/15 13:38:09;;;;;;;10.73;2.22;;;;;;;;;;10275637;28;20044;-65
2022/09/15 13:43:27;;;;;;;11.80;2.20;;;;;;;;;;10275863;28;20092;-65
2022/09/15 13:48:39;;;;;;;8.25;2.83;;;;;;;;;;10275709;28;20049;-66
2022/09/15 13:53:43;;;;;;;11.05;2.15;;;;;;;;;;10276428;28;20045;-66
2022/09/15 13:58:43;;;;;;;11.45;2.50;;;;;;;;;;10275383;28;20347;-66
2022/09/15 14:04:03;;;;;;;9.90;2.63;;;;;;;;;;10275106;28;20049;-66
2022/09/15 14:09:06;;;;;;;11.23;2.15;;;;;;;;;;10274780;28;20033;-66
2022/09/15 14:14:06;;;;;;;5.38;2.42;;;;;;;;;;10275511;28;20055;-67
2022/09/15 14:19:21;;;;;;;8.32;2.20;;;;;;;;;;10274931;28;20044;-67
2022/09/15 14:24:22;;;;;;;12.95;2.60;;;;;;;;;;10274697;28;20056;-67
2022/09/15 14:29:21;;;;;;;13.57;3.97;;;;;;;;;;10274399;28;20041;-66
2022/09/15 14:34:20;;;;;;;7.78;3.03;;;;;;;;;;10274915;28;20060;-67
2022/09/15 14:39:20;;;;;;;10.65;3.10;;;;;;;;;;10275858;28;20076;-66
2022/09/15 14:44:27;;;;;;;5.72;2.60;;;;;;;;;;10282763;28;20072;-67
2022/09/15 14:49:45;;;;;;;8.38;2.25;;;;;;;;;;10283117;28;20092;-66
2022/09/15 14:54:43;;;;;;;15.65;4.10;;;;;;;;;;10282600;28;20482;-67
2022/09/15 14:59:47;;;;;;;10.88;2.38;;;;;;;;;;10280208;28;20049;-67
2022/09/15 15:04:49;;;;;;;17.40;3.53;;;;;;;;;;10282044;28;20052;-66
2022/09/15 15:09:48;;;;;;;9.77;2.47;;;;;;;;;;10281715;28;20073;-66
2022/09/15 15:14:47;;;;;;;13.50;2.95;;;;;;;;;;10281427;28;20076;-66
2022/09/15 15:19:46;;;;;;;9.43;3.40;;;;;;;;;;10281595;28;20049;-67
2022/09/15 15:24:45;;;;;;;9.32;3.10;;;;;;;;;;10281593;28;20056;-65
2022/09/15 15:29:44;;;;;;;10.50;2.58;;;;;;;;;;10281165;28;20095;-68
2022/09/15 15:34:54;;;;;;;16.15;3.63;;;;;;;;;;10281014;28;20052;-66
2022/09/15 15:39:53;;;;;;;12.10;3.75;;;;;;;;;;10281281;28;20075;-67
2022/09/15 15:44:58;;;;;;;12.77;3.03;;;;;;;;;;10280955;28;20624;-66
2022/09/15 15:50:00;;;;;;;10.55;3.17;;;;;;;;;;10279766;28;20069;-66
2022/09/15 15:55:13;;;;;;;8.68;3.33;;;;;;;;;;10280317;28;20048;-67
2022/09/15 16:00:16;;;;;;;11.00;2.83;;;;;;;;;;10279839;28;20131;-66
2022/09/15 16:05:20;;;;;;;11.00;3.17;;;;;;;;;;10279748;28;20057;-66
2022/09/15 16:10:20;;;;;;;12.32;3.38;;;;;;;;;;10279140;28;20076;-67
2022/09/15 16:15:20;;;;;;;12.77;2.88;;;;;;;;;;10279796;28;20517;-67
2022/09/15 16:20:22;;;;;;;11.20;3.53;;;;;;;;;;10279705;28;20521;-65
2022/09/15 16:25:23;;;;;;;13.70;2.63;;;;;;;;;;10278679;28;20095;-66
2022/09/15 16:30:21;;;;;;;9.95;3.08;;;;;;;;;;10279015;28;20080;-66
2022/09/15 16:35:24;;;;;;;9.73;3.17;;;;;;;;;;10279082;28;20083;-66
2022/09/15 16:40:23;;;;;;;8.90;3.88;;;;;;;;;;10277865;28;20536;-64
2022/09/15 16:45:23;;;;;;;13.23;3.00;;;;;;;;;;10278474;28;20535;-64
2022/09/15 16:50:23;;;;;;;12.93;3.35;;;;;;;;;;10277911;28;20076;-64
2022/09/15 16:55:23;;;;;;;10.07;3.00;;;;;;;;;;10277863;28;20045;-64
2022/09/15 17:00:21;;;;;;;15.13;4.80;;;;;;;;;;10276965;28;20048;-64
2022/09/15 17:05:20;;;;;;;7.10;3.25;;;;;;;;;;10276094;28;20494;-64
2022/09/15 17:10:20;;;;;;;6.28;3.35;;;;;;;;;;10277409;28;20080;-64
2022/09/15 17:15:22;;;;;;;13.32;3.05;;;;;;;;;;10276939;28;20104;-65
2022/09/15 17:20:21;;;;;;;10.00;3.67;;;;;;;;;;10276347;28;20503;-64
2022/09/15 17:25:23;;;;;;;17.15;3.97;;;;;;;;;;10276615;28;20053;-64
2022/09/15 17:30:22;;;;;;;17.08;4.55;;;;;;;;;;10275629;28;20111;-64
2022/09/15 17:35:21;;;;;;;10.50;4.50;;;;;;;;;;10276827;28;20041;-64
2022/09/15 17:40:21;;;;;;;11.95;6.95;;;;;;;;;;10284336;28;20071;-64
2022/09/15 17:45:21;;;;;;;10.32;8.32;;;;;;;;;;10294705;28;20458;-64
2022/09/15 17:50:24;;;;;;;16.10;9.05;;;;;;;;;;10293858;28;20041;-62
2022/09/15 17:55:26;;;;;;;21.40;10.55;;;;;;;;;;10294410;28;20072;-64
2022/09/15 18:00:25;;;;;;;19.87;14.30;;;;;;;;;;10306569;28;20056;-63
2022/09/15 18:05:24;;;;;;;24.27;18.20;;;;;;;;;;10297437;28;20069;-63
2022/09/15 18:10:24;;;;;;;20.13;11.00;;;;;;;;;;10293597;28;20037;-64
2022/09/15 18:15:24;;;;;;;12.45;6.15;;;;;;;;;;10301881;28;20044;-63
2022/09/15 18:20:23;;;;;;;7.50;4.03;;;;;;;;;;10293534;28;20516;-64
2022/09/15 18:25:23;;;;;;;9.20;5.05;;;;;;;;;;10315566;28;20056;-64
2022/09/15 18:30:25;;;;;;;10.85;5.22;;;;;;;;;;10312568;28;20136;-63
2022/09/15 18:35:23;;;;;;;10.95;3.95;;;;;;;;;;10312781;28;20045;-64
2022/09/15 18:40:22;;;;;;;11.88;4.57;;;;;;;;;;10274506;28;20056;-63
2022/09/15 18:45:20;;;;;;;13.13;4.07;;;;;;;;;;10303994;28;20048;-64
2022/09/15 18:50:21;;;;;;;12.20;3.47;;;;;;;;;;10297644;28;20076;-62
2022/09/15 18:55:20;;;;;;;12.02;3.78;;;;;;;;;;10273806;28;20087;-62
2022/09/15 19:00:19;;;;;;;14.65;4.50;;;;;;;;;;10276393;28;20040;-63
2022/09/15 19:05:18;;;;;;;9.63;3.25;;;;;;;;;;10282454;28;20049;-63
2022/09/15 19:10:17;;;;;;;7.32;3.03;;;;;;;;;;10273548;28;20068;-63
2022/09/15 19:15:15;;;;;;;12.52;3.08;;;;;;;;;;10274016;28;20474;-63
2022/09/15 19:20:14;;;;;;;15.73;3.47;;;;;;;;;;10290399;28;20029;-63
2022/09/15 19:25:13;;;;;;;13.75;3.90;;;;;;;;;;10292857;28;20116;-63
2022/09/15 19:30:13;;;;;;;11.30;4.03;;;;;;;;;;10299963;28;20065;-62
2022/09/15 19:35:11;;;;;;;7.78;4.50;;;;;;;;;;10280678;28;20218;-63
2022/09/15 19:40:11;;;;;;;10.20;3.70;;;;;;;;;;10294962;28;20516;-63
2022/09/15 19:45:10;;;;;;;11.63;3.72;;;;;;;;;;10300404;28;20166;-63
2022/09/15 19:50:11;;;;;;;12.05;4.20;;;;;;;;;;10299480;28;20079;-63
2022/09/15 19:55:10;;;;;;;14.30;3.25;;;;;;;;;;10299037;28;20583;-62
2022/09/15 20:00:10;;;;;;;8.90;3.47;;;;;;;;;;10299847;28;20072;-62
2022/09/15 20:05:11;;;;;;;15.98;3.83;;;;;;;;;;10284952;28;20052;-63
2022/09/15 20:10:10;;;;;;;8.00;2.97;;;;;;;;;;10279872;28;20079;-62
2022/09/15 20:15:09;;;;;;;10.40;3.40;;;;;;;;;;10280520;28;20104;-63
2022/09/15 20:20:07;;;;;;;8.95;3.17;;;;;;;;;;10279581;28;20056;-64
2022/09/15 20:25:07;;;;;;;11.25;3.90;;;;;;;;;;10279504;28;20056;-63
2022/09/15 20:30:06;;;;;;;5.20;3.25;;;;;;;;;;10278853;28;20081;-61
2022/09/15 20:35:05;;;;;;;12.52;3.50;;;;;;;;;;10277692;28;20084;-63
2022/09/15 20:40:03;;;;;;;10.93;3.38;;;;;;;;;;10278063;28;20045;-64
2022/09/15 20:45:03;;;;;;;6.65;3.25;;;;;;;;;;10278183;28;20041;-63
2022/09/15 20:50:01;;;;;;;5.45;3.20;;;;;;;;;;10278012;28;20420;-64
2022/09/15 20:55:00;;;;;;;8.88;3.03;;;;;;;;;;10277606;28;20519;-64
2022/09/15 20:59:58;;;;;;;12.18;3.10;;;;;;;;;;10278367;28;20088;-64
2022/09/15 21:05:00;;;;;;;9.80;3.45;;;;;;;;;;10277295;28;20037;-63
2022/09/15 21:09:58;;;;;;;12.77;3.03;;;;;;;;;;10277119;28;20052;-63
2022/09/15 21:14:56;;;;;;;11.93;2.72;;;;;;;;;;10277864;28;20076;-63
2022/09/15 21:19:54;;;;;;;8.90;3.08;;;;;;;;;;10277223;28;20476;-64
2022/09/15 21:24:54;;;;;;;12.98;4.20;;;;;;;;;;10276279;28;20061;-64
2022/09/15 21:29:53;;;;;;;7.43;2.83;;;;;;;;;;10277516;28;20037;-63
2022/09/15 21:34:51;;;;;;;8.20;2.63;;;;;;;;;;10277414;28;20442;-63
2022/09/15 21:39:49;;;;;;;5.45;2.75;;;;;;;;;;10276932;28;20082;-63
2022/09/15 21:44:51;;;;;;;12.73;3.10;;;;;;;;;;10276942;28;20079;-63
2022/09/15 21:49:52;;;;;;;7.05;3.08;;;;;;;;;;10276525;28;20052;-64
2022/09/15 21:54:51;;;;;;;9.30;2.95;;;;;;;;;;10275443;28;20080;-62
2022/09/15 21:59:51;;;;;;;5.90;2.70;;;;;;;;;;10276541;28;20087;-63
2022/09/15 22:04:51;;;;;;;12.32;3.17;;;;;;;;;;10276110;28;20427;-63
2022/09/15 22:09:49;;;;;;;8.07;2.75;;;;;;;;;;10275907;28;20627;-63
2022/09/15 22:14:48;;;;;;;7.15;2.58;;;;;;;;;;10275422;28;20084;-63
2022/09/15 22:19:48;;;;;;;13.32;3.20;;;;;;;;;;10274541;28;20063;-62
2022/09/15 22:24:47;;;;;;;9.77;2.50;;;;;;;;;;10274687;28;20060;-63
2022/09/15 22:29:46;;;;;;;9.90;2.95;;;;;;;;;;10275943;28;20045;-62
2022/09/15 22:34:44;;;;;;;11.52;2.53;;;;;;;;;;10274382;28;20079;-63
2022/09/15 22:39:44;;;;;;;8.65;2.53;;;;;;;;;;10275434;28;20048;-63
2022/09/15 22:44:56;;;;;;;8.05;2.53;;;;;;;;;;10275572;28;20037;-63
2022/09/15 22:49:54;;;;;;;5.68;2.38;;;;;;;;;;10275115;28;20072;-63
2022/09/15 22:54:53;;;;;;;4.85;2.25;;;;;;;;;;10274990;28;20084;-63
2022/09/15 22:59:52;;;;;;;9.20;2.40;;;;;;;;;;10275817;28;20064;-65
2022/09/15 23:04:50;;;;;;;5.90;2.67;;;;;;;;;;10283372;28;20052;-63
2022/09/15 23:09:48;;;;;;;10.85;2.92;;;;;;;;;;10282528;28;20405;-64
2022/09/15 23:14:48;;;;;;;5.43;2.60;;;;;;;;;;10283055;28;20091;-63
2022/09/15 23:19:46;;;;;;;6.18;2.15;;;;;;;;;;10282372;28;20430;-64
2022/09/15 23:24:44;;;;;;;5.88;1.90;;;;;;;;;;10281434;28;20552;-63
2022/09/15 23:29:43;;;;;;;10.32;2.60;;;;;;;;;;10282004;28;20049;-62
2022/09/15 23:34:42;;;;;;;11.48;2.75;;;;;;;;;;10281696;28;20090;-62
2022/09/15 23:39:40;;;;;;;8.57;2.75;;;;;;;;;;10281607;28;20482;-63
2022/09/15 23:44:39;;;;;;;3.95;2.22;;;;;;;;;;10281385;28;20478;-63
2022/09/15 23:49:37;;;;;;;6.65;2.58;;;;;;;;;;10281145;28;20047;-63
2022/09/15 23:54:37;;;;;;;9.40;2.35;;;;;;;;;;10281110;28;20084;-63
2022/09/15 23:59:35;;;;;;;7.15;2.78;;;;;;;;;;10280868;28;20639;-63
